sensor_id;sensor_type;location;lat;lon;timestamp;pressure;altitude;pressure_sealevel;temperature;humidity
48810;BME280;40070;47.322;18.784;2022-12-07T00:00:36;1002.66;;;2.87;71.22
48810;BME280;40070;47.322;18.784;2022-12-07T00:02:38;1002.63;;;3.08;70.41
48810;BME280;40070;47.322;18.784;2022-12-07T00:04:41;1002.61;;;3.14;70.22
48810;BME280;40070;47.322;18.784;2022-12-07T00:06:44;1002.56;;;3.17;70.28
48810;BME280;40070;47.322;18.784;2022-12-07T00:08:46;1002.55;;;3.26;69.80
48810;BME280;40070;47.322;18.784;2022-12-07T00:10:49;1002.53;;;3.37;69.72
48810;BME280;40070;47.322;18.784;2022-12-07T00:12:51;1002.53;;;3.33;69.96
48810;BME280;40070;47.322;18.784;2022-12-07T00:14:54;1002.51;;;3.05;71.04
48810;BME280;40070;47.322;18.784;2022-12-07T00:16:56;1002.49;;;3.24;70.98
48810;BME280;40070;47.322;18.784;2022-12-07T00:18:58;1002.55;;;3.10;71.65
48810;BME280;40070;47.322;18.784;2022-12-07T00:21:09;1002.50;;;3.16;71.95
48810;BME280;40070;47.322;18.784;2022-12-07T00:23:12;1002.49;;;3.24;71.84
48810;BME280;40070;47.322;18.784;2022-12-07T00:25:14;1002.47;;;3.23;71.45
48810;BME280;40070;47.322;18.784;2022-12-07T00:27:16;1002.46;;;3.31;70.90
48810;BME280;40070;47.322;18.784;2022-12-07T00:29:19;1002.42;;;3.06;71.75
48810;BME280;40070;47.322;18.784;2022-12-07T00:31:23;1002.40;;;3.30;71.22
48810;BME280;40070;47.322;18.784;2022-12-07T00:33:26;1002.41;;;3.22;71.16
48810;BME280;40070;47.322;18.784;2022-12-07T00:35:28;1002.38;;;3.07;72.12
48810;BME280;40070;47.322;18.784;2022-12-07T00:37:31;1002.40;;;3.28;71.05
48810;BME280;40070;47.322;18.784;2022-12-07T00:39:33;1002.37;;;3.35;70.67
48810;BME280;40070;47.322;18.784;2022-12-07T00:41:35;1002.39;;;3.30;70.57
48810;BME280;40070;47.322;18.784;2022-12-07T00:43:38;1002.44;;;3.42;70.14
48810;BME280;40070;47.322;18.784;2022-12-07T00:45:40;1002.40;;;3.34;70.10
48810;BME280;40070;47.322;18.784;2022-12-07T00:47:43;1002.48;;;3.32;70.09
48810;BME280;40070;47.322;18.784;2022-12-07T00:49:45;1002.46;;;3.34;70.30
48810;BME280;40070;47.322;18.784;2022-12-07T00:51:48;1002.46;;;3.34;70.42
48810;BME280;40070;47.322;18.784;2022-12-07T00:53:50;1002.42;;;3.28;70.60
48810;BME280;40070;47.322;18.784;2022-12-07T00:55:52;1002.41;;;3.42;70.50
48810;BME280;40070;47.322;18.784;2022-12-07T00:57:55;1002.39;;;3.07;71.52
48810;BME280;40070;47.322;18.784;2022-12-07T00:59:57;1002.40;;;3.08;71.89
48810;BME280;40070;47.322;18.784;2022-12-07T01:01:59;1002.40;;;3.19;71.39
48810;BME280;40070;47.322;18.784;2022-12-07T01:04:02;1002.41;;;3.29;70.84
48810;BME280;40070;47.322;18.784;2022-12-07T01:06:04;1002.43;;;3.45;70.50
48810;BME280;40070;47.322;18.784;2022-12-07T01:08:08;1002.44;;;3.53;69.78
48810;BME280;40070;47.322;18.784;2022-12-07T01:10:10;1002.33;;;3.34;70.11
48810;BME280;40070;47.322;18.784;2022-12-07T01:12:12;1002.32;;;3.19;70.76
48810;BME280;40070;47.322;18.784;2022-12-07T01:14:15;1002.29;;;3.26;70.55
48810;BME280;40070;47.322;18.784;2022-12-07T01:16:17;1002.24;;;3.25;70.68
48810;BME280;40070;47.322;18.784;2022-12-07T01:18:20;1002.23;;;3.22;70.32
48810;BME280;40070;47.322;18.784;2022-12-07T01:20:23;1002.22;;;3.18;70.14
48810;BME280;40070;47.322;18.784;2022-12-07T01:22:25;1002.23;;;3.14;70.35
48810;BME280;40070;47.322;18.784;2022-12-07T01:24:28;1002.28;;;3.25;70.29
48810;BME280;40070;47.322;18.784;2022-12-07T01:26:30;1002.27;;;3.22;70.24
48810;BME280;40070;47.322;18.784;2022-12-07T01:28:33;1002.29;;;3.39;69.91
48810;BME280;40070;47.322;18.784;2022-12-07T01:30:35;1002.29;;;3.28;70.31
48810;BME280;40070;47.322;18.784;2022-12-07T01:32:38;1002.25;;;3.34;70.18
48810;BME280;40070;47.322;18.784;2022-12-07T01:34:40;1002.25;;;3.49;69.83
48810;BME280;40070;47.322;18.784;2022-12-07T01:36:42;1002.26;;;3.60;69.35
48810;BME280;40070;47.322;18.784;2022-12-07T01:38:45;1002.30;;;3.47;70.13
48810;BME280;40070;47.322;18.784;2022-12-07T01:40:53;1002.30;;;3.39;70.48
48810;BME280;40070;47.322;18.784;2022-12-07T01:42:55;1002.30;;;3.50;70.29
48810;BME280;40070;47.322;18.784;2022-12-07T01:47:24;1002.25;;;3.14;71.58
48810;BME280;40070;47.322;18.784;2022-12-07T01:49:31;1002.25;;;3.28;71.34
48810;BME280;40070;47.322;18.784;2022-12-07T01:51:35;1002.20;;;3.44;70.73
48810;BME280;40070;47.322;18.784;2022-12-07T01:53:40;1002.19;;;3.22;71.19
48810;BME280;40070;47.322;18.784;2022-12-07T01:55:45;1002.24;;;3.32;71.20
48810;BME280;40070;47.322;18.784;2022-12-07T01:57:50;1002.20;;;3.36;71.04
48810;BME280;40070;47.322;18.784;2022-12-07T01:59:54;1002.23;;;3.43;71.15
48810;BME280;40070;47.322;18.784;2022-12-07T02:01:58;1002.17;;;3.47;71.26
48810;BME280;40070;47.322;18.784;2022-12-07T02:04:00;1002.16;;;3.67;70.85
48810;BME280;40070;47.322;18.784;2022-12-07T02:06:02;1002.13;;;3.62;70.95
48810;BME280;40070;47.322;18.784;2022-12-07T02:08:06;1002.12;;;3.40;71.73
48810;BME280;40070;47.322;18.784;2022-12-07T02:10:13;1002.12;;;3.56;71.22
48810;BME280;40070;47.322;18.784;2022-12-07T02:12:16;1002.15;;;3.04;72.61
48810;BME280;40070;47.322;18.784;2022-12-07T02:14:18;1002.10;;;3.14;72.70
48810;BME280;40070;47.322;18.784;2022-12-07T02:16:25;1002.10;;;3.35;72.16
48810;BME280;40070;47.322;18.784;2022-12-07T02:18:48;1002.06;;;3.07;72.50
48810;BME280;40070;47.322;18.784;2022-12-07T02:20:54;1002.01;;;2.97;73.16
48810;BME280;40070;47.322;18.784;2022-12-07T02:25:33;1002.09;;;3.16;72.84
48810;BME280;40070;47.322;18.784;2022-12-07T02:27:57;1002.02;;;3.44;71.78
48810;BME280;40070;47.322;18.784;2022-12-07T02:30:21;1002.04;;;3.18;72.80
48810;BME280;40070;47.322;18.784;2022-12-07T02:32:25;1002.05;;;3.44;72.15
48810;BME280;40070;47.322;18.784;2022-12-07T02:34:37;1002.01;;;3.13;72.92
48810;BME280;40070;47.322;18.784;2022-12-07T02:36:46;1002.00;;;3.25;72.88
48810;BME280;40070;47.322;18.784;2022-12-07T02:38:58;1002.02;;;3.50;72.38
48810;BME280;40070;47.322;18.784;2022-12-07T02:41:22;1002.05;;;3.68;71.57
48810;BME280;40070;47.322;18.784;2022-12-07T02:43:30;1002.11;;;3.76;71.42
48810;BME280;40070;47.322;18.784;2022-12-07T02:45:36;1002.14;;;3.99;70.56
48810;BME280;40070;47.322;18.784;2022-12-07T02:47:41;1002.13;;;3.29;72.50
48810;BME280;40070;47.322;18.784;2022-12-07T02:49:44;1002.13;;;3.42;72.31
48810;BME280;40070;47.322;18.784;2022-12-07T02:51:47;1002.11;;;3.53;71.95
48810;BME280;40070;47.322;18.784;2022-12-07T02:53:49;1002.17;;;3.59;71.86
48810;BME280;40070;47.322;18.784;2022-12-07T02:55:51;1002.17;;;3.29;72.76
48810;BME280;40070;47.322;18.784;2022-12-07T02:58:17;1002.14;;;3.42;72.49
48810;BME280;40070;47.322;18.784;2022-12-07T03:00:09;1002.17;;;3.69;71.77
48810;BME280;40070;47.322;18.784;2022-12-07T03:04:31;1002.06;;;3.75;71.49
48810;BME280;40070;47.322;18.784;2022-12-07T03:06:37;1002.09;;;3.73;71.59
48810;BME280;40070;47.322;18.784;2022-12-07T03:08:56;1002.06;;;3.78;71.75
48810;BME280;40070;47.322;18.784;2022-12-07T03:11:44;1001.96;;;3.89;71.44
48810;BME280;40070;47.322;18.784;2022-12-07T03:13:19;1001.93;;;3.76;72.04
48810;BME280;40070;47.322;18.784;2022-12-07T03:15:29;1001.91;;;3.93;71.73
48810;BME280;40070;47.322;18.784;2022-12-07T03:17:34;1001.94;;;4.10;71.24
48810;BME280;40070;47.322;18.784;2022-12-07T03:19:38;1001.87;;;4.16;70.93
48810;BME280;40070;47.322;18.784;2022-12-07T03:21:52;1001.85;;;4.15;71.03
48810;BME280;40070;47.322;18.784;2022-12-07T03:23:56;1001.85;;;4.15;70.90
48810;BME280;40070;47.322;18.784;2022-12-07T03:25:59;1001.87;;;4.15;70.93
48810;BME280;40070;47.322;18.784;2022-12-07T03:28:03;1001.89;;;4.09;71.06
48810;BME280;40070;47.322;18.784;2022-12-07T03:30:15;1001.87;;;3.47;72.55
48810;BME280;40070;47.322;18.784;2022-12-07T03:32:21;1001.88;;;3.80;72.67
48810;BME280;40070;47.322;18.784;2022-12-07T03:34:30;1001.89;;;4.00;71.50
48810;BME280;40070;47.322;18.784;2022-12-07T03:36:35;1001.89;;;3.90;71.34
48810;BME280;40070;47.322;18.784;2022-12-07T03:38:53;1001.93;;;3.98;71.73
48810;BME280;40070;47.322;18.784;2022-12-07T03:41:01;1001.88;;;4.08;70.94
48810;BME280;40070;47.322;18.784;2022-12-07T03:43:07;1001.92;;;4.03;71.36
48810;BME280;40070;47.322;18.784;2022-12-07T03:45:10;1001.85;;;4.14;71.51
48810;BME280;40070;47.322;18.784;2022-12-07T03:47:16;1001.78;;;4.25;71.37
48810;BME280;40070;47.322;18.784;2022-12-07T03:49:27;1001.81;;;4.13;71.56
48810;BME280;40070;47.322;18.784;2022-12-07T03:53:49;1002.00;;;3.66;73.22
48810;BME280;40070;47.322;18.784;2022-12-07T03:55:53;1002.01;;;3.80;73.41
48810;BME280;40070;47.322;18.784;2022-12-07T03:57:58;1001.97;;;4.07;72.68
48810;BME280;40070;47.322;18.784;2022-12-07T04:00:03;1001.97;;;4.23;71.93
48810;BME280;40070;47.322;18.784;2022-12-07T04:02:06;1001.98;;;4.09;71.91
48810;BME280;40070;47.322;18.784;2022-12-07T04:04:09;1001.93;;;3.95;73.24
48810;BME280;40070;47.322;18.784;2022-12-07T04:06:11;1001.90;;;4.01;73.57
48810;BME280;40070;47.322;18.784;2022-12-07T04:08:13;1001.87;;;4.14;73.37
48810;BME280;40070;47.322;18.784;2022-12-07T04:10:16;1001.89;;;4.25;73.05
48810;BME280;40070;47.322;18.784;2022-12-07T04:12:18;1001.91;;;3.88;74.53
48810;BME280;40070;47.322;18.784;2022-12-07T04:14:20;1001.87;;;3.96;74.41
48810;BME280;40070;47.322;18.784;2022-12-07T04:16:23;1001.80;;;4.16;73.92
48810;BME280;40070;47.322;18.784;2022-12-07T04:18:25;1001.80;;;3.95;74.03
48810;BME280;40070;47.322;18.784;2022-12-07T04:20:27;1001.78;;;4.07;73.54
48810;BME280;40070;47.322;18.784;2022-12-07T04:22:30;1001.77;;;4.17;73.20
48810;BME280;40070;47.322;18.784;2022-12-07T04:24:32;1001.83;;;4.14;72.87
48810;BME280;40070;47.322;18.784;2022-12-07T04:26:35;1001.85;;;3.77;74.24
48810;BME280;40070;47.322;18.784;2022-12-07T04:28:37;1001.87;;;3.71;74.63
48810;BME280;40070;47.322;18.784;2022-12-07T04:30:40;1001.93;;;4.10;73.62
48810;BME280;40070;47.322;18.784;2022-12-07T04:32:42;1001.96;;;3.70;74.53
48810;BME280;40070;47.322;18.784;2022-12-07T04:34:44;1001.92;;;3.53;74.53
48810;BME280;40070;47.322;18.784;2022-12-07T04:36:47;1002.02;;;3.87;73.79
48810;BME280;40070;47.322;18.784;2022-12-07T04:38:49;1001.99;;;3.38;75.29
48810;BME280;40070;47.322;18.784;2022-12-07T04:40:51;1001.91;;;3.48;75.11
48810;BME280;40070;47.322;18.784;2022-12-07T04:42:54;1001.83;;;3.52;74.95
48810;BME280;40070;47.322;18.784;2022-12-07T04:44:56;1001.82;;;3.42;75.37
48810;BME280;40070;47.322;18.784;2022-12-07T04:46:59;1001.88;;;3.74;74.63
48810;BME280;40070;47.322;18.784;2022-12-07T04:49:01;1001.94;;;3.11;76.23
48810;BME280;40070;47.322;18.784;2022-12-07T04:51:03;1001.95;;;3.51;75.92
48810;BME280;40070;47.322;18.784;2022-12-07T04:53:06;1001.98;;;3.75;74.78
48810;BME280;40070;47.322;18.784;2022-12-07T04:55:08;1002.01;;;3.33;75.64
48810;BME280;40070;47.322;18.784;2022-12-07T04:57:11;1001.99;;;3.66;74.95
48810;BME280;40070;47.322;18.784;2022-12-07T04:59:13;1001.95;;;3.50;74.89
48810;BME280;40070;47.322;18.784;2022-12-07T05:01:16;1002.00;;;3.92;73.92
48810;BME280;40070;47.322;18.784;2022-12-07T05:03:19;1001.98;;;3.32;75.17
48810;BME280;40070;47.322;18.784;2022-12-07T05:05:21;1002.06;;;3.16;76.52
48810;BME280;40070;47.322;18.784;2022-12-07T05:07:24;1002.01;;;3.53;76.00
48810;BME280;40070;47.322;18.784;2022-12-07T05:09:26;1002.04;;;3.90;74.62
48810;BME280;40070;47.322;18.784;2022-12-07T05:11:28;1002.06;;;4.11;73.44
48810;BME280;40070;47.322;18.784;2022-12-07T05:13:31;1002.05;;;3.74;74.35
48810;BME280;40070;47.322;18.784;2022-12-07T05:15:34;1002.09;;;3.83;74.06
48810;BME280;40070;47.322;18.784;2022-12-07T05:17:36;1002.13;;;3.72;74.41
48810;BME280;40070;47.322;18.784;2022-12-07T05:19:38;1002.18;;;3.42;75.28
48810;BME280;40070;47.322;18.784;2022-12-07T05:21:41;1002.15;;;3.10;77.14
48810;BME280;40070;47.322;18.784;2022-12-07T05:23:43;1002.20;;;2.97;77.95
48810;BME280;40070;47.322;18.784;2022-12-07T05:25:46;1002.16;;;3.28;77.40
48810;BME280;40070;47.322;18.784;2022-12-07T05:27:48;1002.19;;;3.31;76.82
48810;BME280;40070;47.322;18.784;2022-12-07T05:29:50;1002.21;;;3.76;75.91
48810;BME280;40070;47.322;18.784;2022-12-07T05:31:53;1002.14;;;3.98;74.64
48810;BME280;40070;47.322;18.784;2022-12-07T05:33:55;1002.10;;;4.19;74.08
48810;BME280;40070;47.322;18.784;2022-12-07T05:35:57;1002.05;;;4.22;73.84
48810;BME280;40070;47.322;18.784;2022-12-07T05:38:00;1002.08;;;4.19;73.69
48810;BME280;40070;47.322;18.784;2022-12-07T05:40:03;1002.08;;;4.10;74.62
48810;BME280;40070;47.322;18.784;2022-12-07T05:42:05;1002.00;;;4.36;73.98
48810;BME280;40070;47.322;18.784;2022-12-07T05:44:07;1002.00;;;4.30;74.59
48810;BME280;40070;47.322;18.784;2022-12-07T05:46:10;1001.95;;;4.33;74.06
48810;BME280;40070;47.322;18.784;2022-12-07T05:48:12;1001.90;;;4.60;73.30
48810;BME280;40070;47.322;18.784;2022-12-07T05:50:14;1001.90;;;4.60;72.93
48810;BME280;40070;47.322;18.784;2022-12-07T05:52:17;1001.86;;;4.54;73.05
48810;BME280;40070;47.322;18.784;2022-12-07T05:54:19;1001.83;;;4.50;73.83
48810;BME280;40070;47.322;18.784;2022-12-07T05:56:22;1001.84;;;4.75;72.84
48810;BME280;40070;47.322;18.784;2022-12-07T05:58:24;1001.88;;;4.69;72.59
48810;BME280;40070;47.322;18.784;2022-12-07T06:00:26;1001.85;;;4.65;72.75
48810;BME280;40070;47.322;18.784;2022-12-07T06:02:29;1001.86;;;4.75;72.30
48810;BME280;40070;47.322;18.784;2022-12-07T06:04:32;1001.92;;;4.54;72.99
48810;BME280;40070;47.322;18.784;2022-12-07T06:06:34;1002.00;;;4.28;73.17
48810;BME280;40070;47.322;18.784;2022-12-07T06:08:37;1001.88;;;4.30;73.56
48810;BME280;40070;47.322;18.784;2022-12-07T06:10:39;1001.95;;;4.41;72.99
48810;BME280;40070;47.322;18.784;2022-12-07T06:12:41;1001.91;;;4.43;72.90
48810;BME280;40070;47.322;18.784;2022-12-07T06:14:44;1002.00;;;3.93;74.11
48810;BME280;40070;47.322;18.784;2022-12-07T06:16:46;1002.01;;;3.71;75.67
48810;BME280;40070;47.322;18.784;2022-12-07T06:18:52;1002.02;;;3.83;75.28
48810;BME280;40070;47.322;18.784;2022-12-07T06:20:54;1002.02;;;3.65;76.00
48810;BME280;40070;47.322;18.784;2022-12-07T06:22:56;1002.08;;;4.35;74.22
48810;BME280;40070;47.322;18.784;2022-12-07T06:24:59;1002.10;;;4.34;73.25
48810;BME280;40070;47.322;18.784;2022-12-07T06:27:01;1002.08;;;4.41;73.45
48810;BME280;40070;47.322;18.784;2022-12-07T06:29:04;1002.15;;;4.25;74.22
48810;BME280;40070;47.322;18.784;2022-12-07T06:31:06;1002.09;;;4.55;73.63
48810;BME280;40070;47.322;18.784;2022-12-07T06:33:09;1002.08;;;4.58;73.10
48810;BME280;40070;47.322;18.784;2022-12-07T06:35:11;1002.09;;;4.41;73.33
48810;BME280;40070;47.322;18.784;2022-12-07T06:37:14;1002.15;;;4.43;73.82
48810;BME280;40070;47.322;18.784;2022-12-07T06:39:16;1002.16;;;4.67;73.26
48810;BME280;40070;47.322;18.784;2022-12-07T06:41:19;1002.14;;;4.36;74.21
48810;BME280;40070;47.322;18.784;2022-12-07T06:43:21;1002.19;;;4.43;74.26
48810;BME280;40070;47.322;18.784;2022-12-07T06:45:24;1002.17;;;4.37;74.61
48810;BME280;40070;47.322;18.784;2022-12-07T06:47:26;1002.13;;;4.54;74.07
48810;BME280;40070;47.322;18.784;2022-12-07T06:49:28;1002.14;;;4.60;73.77
48810;BME280;40070;47.322;18.784;2022-12-07T06:51:31;1002.17;;;4.77;73.49
48810;BME280;40070;47.322;18.784;2022-12-07T06:53:33;1002.18;;;4.80;73.23
48810;BME280;40070;47.322;18.784;2022-12-07T06:55:36;1002.17;;;4.76;73.73
48810;BME280;40070;47.322;18.784;2022-12-07T06:57:38;1002.17;;;4.81;73.66
48810;BME280;40070;47.322;18.784;2022-12-07T06:59:41;1002.16;;;4.93;72.96
48810;BME280;40070;47.322;18.784;2022-12-07T07:01:43;1002.20;;;4.50;74.65
48810;BME280;40070;47.322;18.784;2022-12-07T07:03:45;1002.18;;;4.78;73.94
48810;BME280;40070;47.322;18.784;2022-12-07T07:05:48;1002.18;;;4.78;73.40
48810;BME280;40070;47.322;18.784;2022-12-07T07:07:51;1002.13;;;4.87;73.28
48810;BME280;40070;47.322;18.784;2022-12-07T07:09:53;1002.18;;;4.88;73.22
48810;BME280;40070;47.322;18.784;2022-12-07T07:11:55;1002.18;;;4.65;73.48
48810;BME280;40070;47.322;18.784;2022-12-07T07:13:58;1002.18;;;4.74;73.24
48810;BME280;40070;47.322;18.784;2022-12-07T07:16:00;1002.19;;;4.60;73.88
48810;BME280;40070;47.322;18.784;2022-12-07T07:18:02;1002.22;;;4.86;72.86
48810;BME280;40070;47.322;18.784;2022-12-07T07:20:05;1002.23;;;4.79;73.05
48810;BME280;40070;47.322;18.784;2022-12-07T07:22:08;1002.25;;;4.89;72.68
48810;BME280;40070;47.322;18.784;2022-12-07T07:24:10;1002.29;;;4.81;73.02
48810;BME280;40070;47.322;18.784;2022-12-07T07:26:12;1002.29;;;4.88;73.00
48810;BME280;40070;47.322;18.784;2022-12-07T07:28:15;1002.27;;;5.00;72.60
48810;BME280;40070;47.322;18.784;2022-12-07T07:30:18;1002.26;;;4.87;73.07
48810;BME280;40070;47.322;18.784;2022-12-07T07:32:20;1002.25;;;4.92;73.46
48810;BME280;40070;47.322;18.784;2022-12-07T07:34:23;1002.25;;;5.00;73.00
48810;BME280;40070;47.322;18.784;2022-12-07T07:36:25;1002.24;;;5.00;73.21
48810;BME280;40070;47.322;18.784;2022-12-07T07:38:27;1002.24;;;4.98;73.37
48810;BME280;40070;47.322;18.784;2022-12-07T07:40:30;1002.24;;;5.22;73.22
48810;BME280;40070;47.322;18.784;2022-12-07T07:42:32;1002.30;;;5.15;73.21
48810;BME280;40070;47.322;18.784;2022-12-07T07:44:34;1002.29;;;5.17;73.47
48810;BME280;40070;47.322;18.784;2022-12-07T07:46:37;1002.29;;;5.30;73.09
48810;BME280;40070;47.322;18.784;2022-12-07T07:48:39;1002.30;;;5.55;72.10
48810;BME280;40070;47.322;18.784;2022-12-07T07:50:41;1002.32;;;5.43;72.10
48810;BME280;40070;47.322;18.784;2022-12-07T07:52:44;1002.36;;;5.36;72.46
48810;BME280;40070;47.322;18.784;2022-12-07T07:54:46;1002.30;;;5.45;72.34
48810;BME280;40070;47.322;18.784;2022-12-07T07:56:49;1002.25;;;5.30;72.53
48810;BME280;40070;47.322;18.784;2022-12-07T07:58:52;1002.30;;;5.32;72.69
48810;BME280;40070;47.322;18.784;2022-12-07T08:00:54;1002.27;;;5.31;72.44
48810;BME280;40070;47.322;18.784;2022-12-07T08:02:56;1002.29;;;5.50;72.49
48810;BME280;40070;47.322;18.784;2022-12-07T08:04:59;1002.28;;;5.58;71.95
48810;BME280;40070;47.322;18.784;2022-12-07T08:07:01;1002.28;;;5.51;72.21
48810;BME280;40070;47.322;18.784;2022-12-07T08:09:03;1002.26;;;5.64;72.25
48810;BME280;40070;47.322;18.784;2022-12-07T08:11:06;1002.27;;;5.67;72.23
48810;BME280;40070;47.322;18.784;2022-12-07T08:13:08;1002.33;;;5.72;72.04
48810;BME280;40070;47.322;18.784;2022-12-07T08:15:11;1002.33;;;5.77;72.26
48810;BME280;40070;47.322;18.784;2022-12-07T08:17:13;1002.32;;;5.74;72.13
48810;BME280;40070;47.322;18.784;2022-12-07T08:19:15;1002.36;;;5.34;73.03
48810;BME280;40070;47.322;18.784;2022-12-07T08:21:18;1002.39;;;5.54;73.32
48810;BME280;40070;47.322;18.784;2022-12-07T08:23:20;1002.37;;;5.62;73.13
48810;BME280;40070;47.322;18.784;2022-12-07T08:25:23;1002.36;;;5.81;72.43
48810;BME280;40070;47.322;18.784;2022-12-07T08:27:25;1002.36;;;6.02;72.17
48810;BME280;40070;47.322;18.784;2022-12-07T08:29:27;1002.33;;;5.85;72.63
48810;BME280;40070;47.322;18.784;2022-12-07T08:31:30;1002.35;;;5.87;72.84
48810;BME280;40070;47.322;18.784;2022-12-07T08:33:32;1002.36;;;6.02;72.55
48810;BME280;40070;47.322;18.784;2022-12-07T08:35:34;1002.36;;;5.90;73.17
48810;BME280;40070;47.322;18.784;2022-12-07T08:37:37;1002.36;;;5.95;72.84
48810;BME280;40070;47.322;18.784;2022-12-07T08:39:39;1002.40;;;6.04;72.73
48810;BME280;40070;47.322;18.784;2022-12-07T08:41:42;1002.36;;;6.21;72.51
48810;BME280;40070;47.322;18.784;2022-12-07T08:43:44;1002.38;;;6.45;72.01
48810;BME280;40070;47.322;18.784;2022-12-07T08:45:47;1002.39;;;6.51;71.87
48810;BME280;40070;47.322;18.784;2022-12-07T08:47:58;1002.35;;;6.43;72.02
48810;BME280;40070;47.322;18.784;2022-12-07T08:50:03;1002.36;;;6.46;72.23
48810;BME280;40070;47.322;18.784;2022-12-07T08:52:06;1002.38;;;6.57;71.90
48810;BME280;40070;47.322;18.784;2022-12-07T08:54:12;1002.37;;;6.56;71.76
48810;BME280;40070;47.322;18.784;2022-12-07T08:56:16;1002.48;;;6.46;72.54
48810;BME280;40070;47.322;18.784;2022-12-07T08:58:18;1002.45;;;6.42;72.21
48810;BME280;40070;47.322;18.784;2022-12-07T09:00:21;1002.40;;;6.46;72.27
48810;BME280;40070;47.322;18.784;2022-12-07T09:02:23;1002.44;;;6.60;71.99
48810;BME280;40070;47.322;18.784;2022-12-07T09:04:26;1002.48;;;6.57;72.29
48810;BME280;40070;47.322;18.784;2022-12-07T09:06:29;1002.44;;;6.66;72.15
48810;BME280;40070;47.322;18.784;2022-12-07T09:08:35;1002.47;;;6.59;72.33
48810;BME280;40070;47.322;18.784;2022-12-07T09:10:38;1002.47;;;6.31;73.25
48810;BME280;40070;47.322;18.784;2022-12-07T09:12:40;1002.44;;;6.53;72.63
48810;BME280;40070;47.322;18.784;2022-12-07T09:14:43;1002.37;;;6.50;72.36
48810;BME280;40070;47.322;18.784;2022-12-07T09:16:45;1002.35;;;6.64;72.32
48810;BME280;40070;47.322;18.784;2022-12-07T09:18:47;1002.36;;;6.53;72.93
48810;BME280;40070;47.322;18.784;2022-12-07T09:20:50;1002.31;;;6.36;73.80
48810;BME280;40070;47.322;18.784;2022-12-07T09:22:52;1002.26;;;6.53;73.80
48810;BME280;40070;47.322;18.784;2022-12-07T09:24:55;1002.20;;;6.59;73.61
48810;BME280;40070;47.322;18.784;2022-12-07T09:26:57;1002.20;;;6.76;73.26
48810;BME280;40070;47.322;18.784;2022-12-07T09:28:59;1002.27;;;6.65;73.02
48810;BME280;40070;47.322;18.784;2022-12-07T09:31:02;1002.22;;;6.91;72.85
48810;BME280;40070;47.322;18.784;2022-12-07T09:33:05;1002.17;;;6.96;72.24
48810;BME280;40070;47.322;18.784;2022-12-07T09:35:07;1002.17;;;7.00;72.42
48810;BME280;40070;47.322;18.784;2022-12-07T09:37:09;1002.18;;;7.17;72.10
48810;BME280;40070;47.322;18.784;2022-12-07T09:39:12;1002.17;;;6.99;72.18
48810;BME280;40070;47.322;18.784;2022-12-07T09:41:14;1002.19;;;6.87;73.32
48810;BME280;40070;47.322;18.784;2022-12-07T09:43:18;1002.12;;;7.06;73.18
48810;BME280;40070;47.322;18.784;2022-12-07T09:45:29;1002.16;;;7.25;72.44
48810;BME280;40070;47.322;18.784;2022-12-07T09:47:34;1002.22;;;7.50;71.77
48810;BME280;40070;47.322;18.784;2022-12-07T09:49:36;1002.21;;;7.48;71.30
48810;BME280;40070;47.322;18.784;2022-12-07T09:51:39;1002.23;;;7.11;72.30
48810;BME280;40070;47.322;18.784;2022-12-07T09:53:41;1002.24;;;7.22;72.48
48810;BME280;40070;47.322;18.784;2022-12-07T09:55:44;1002.27;;;7.50;71.78
48810;BME280;40070;47.322;18.784;2022-12-07T09:57:47;1002.29;;;7.43;71.96
48810;BME280;40070;47.322;18.784;2022-12-07T09:59:49;1002.28;;;7.06;72.60
48810;BME280;40070;47.322;18.784;2022-12-07T10:01:52;1002.26;;;7.24;72.55
48810;BME280;40070;47.322;18.784;2022-12-07T10:03:56;1002.25;;;7.33;71.44
48810;BME280;40070;47.322;18.784;2022-12-07T10:06:01;1002.23;;;7.58;71.46
48810;BME280;40070;47.322;18.784;2022-12-07T10:08:03;1002.19;;;7.77;70.62
48810;BME280;40070;47.322;18.784;2022-12-07T10:10:17;1002.13;;;8.07;69.76
48810;BME280;40070;47.322;18.784;2022-12-07T10:12:21;1002.12;;;7.75;70.66
48810;BME280;40070;47.322;18.784;2022-12-07T10:14:23;1002.07;;;7.40;71.32
48810;BME280;40070;47.322;18.784;2022-12-07T10:16:35;1002.05;;;7.46;71.80
48810;BME280;40070;47.322;18.784;2022-12-07T10:18:40;1002.02;;;7.50;70.97
48810;BME280;40070;47.322;18.784;2022-12-07T10:20:43;1002.03;;;7.80;70.63
48810;BME280;40070;47.322;18.784;2022-12-07T10:22:56;1002.02;;;7.84;70.38
48810;BME280;40070;47.322;18.784;2022-12-07T10:25:07;1002.00;;;8.14;69.48
48810;BME280;40070;47.322;18.784;2022-12-07T10:27:30;1002.01;;;8.08;69.80
48810;BME280;40070;47.322;18.784;2022-12-07T10:29:38;1001.98;;;8.08;70.17
48810;BME280;40070;47.322;18.784;2022-12-07T10:31:41;1001.94;;;8.34;69.12
48810;BME280;40070;47.322;18.784;2022-12-07T10:33:51;1001.91;;;8.41;68.57
48810;BME280;40070;47.322;18.784;2022-12-07T10:35:53;1001.87;;;8.38;67.78
48810;BME280;40070;47.322;18.784;2022-12-07T10:37:57;1001.95;;;8.26;68.57
48810;BME280;40070;47.322;18.784;2022-12-07T10:40:00;1001.97;;;8.27;68.92
48810;BME280;40070;47.322;18.784;2022-12-07T10:42:03;1001.89;;;8.33;68.63
48810;BME280;40070;47.322;18.784;2022-12-07T10:44:07;1001.86;;;8.15;68.93
48810;BME280;40070;47.322;18.784;2022-12-07T10:48:55;1001.82;;;8.37;68.38
48810;BME280;40070;47.322;18.784;2022-12-07T10:51:06;1001.81;;;8.58;68.15
48810;BME280;40070;47.322;18.784;2022-12-07T10:53:19;1001.80;;;8.76;67.45
48810;BME280;40070;47.322;18.784;2022-12-07T10:55:34;1001.76;;;8.60;67.13
48810;BME280;40070;47.322;18.784;2022-12-07T11:00:19;1001.75;;;8.55;65.80
48810;BME280;40070;47.322;18.784;2022-12-07T11:02:32;1001.68;;;8.77;65.79
48810;BME280;40070;47.322;18.784;2022-12-07T11:04:41;1001.63;;;8.72;65.13
48810;BME280;40070;47.322;18.784;2022-12-07T11:11:36;1001.62;;;8.93;65.40
48810;BME280;40070;47.322;18.784;2022-12-07T11:13:48;1001.65;;;8.96;65.12
48810;BME280;40070;47.322;18.784;2022-12-07T11:15:59;1001.60;;;9.09;64.37
48810;BME280;40070;47.322;18.784;2022-12-07T11:18:09;1001.61;;;9.17;63.89
48810;BME280;40070;47.322;18.784;2022-12-07T11:20:24;1001.63;;;9.17;64.00
48810;BME280;40070;47.322;18.784;2022-12-07T11:22:42;1001.66;;;8.97;64.21
48810;BME280;40070;47.322;18.784;2022-12-07T11:27:19;1001.66;;;8.97;64.88